Time,TemperatureF,DewpointF,PressureIn,WindDirection,WindDirectionDegrees,WindSpeedMPH,WindSpeedGustMPH,Humidity,HourlyPrecipIn,Conditions,Clouds,dailyrainin,SoftwareType,DateUTC
2013-04-26 00:02:00,66.0,36.0,29.73,SW,217,9.0,24.0,33,0.00,,,0.00,,2013-04-26 05:02:00,
2013-04-26 00:12:00,66.0,36.0,29.73,SW,217,9.0,24.0,33,0.00,,,0.00,,2013-04-26 05:12:00,
2013-04-26 00:22:00,66.0,36.0,29.73,SW,217,9.0,24.0,33,0.00,,,0.00,,2013-04-26 05:22:00,
2013-04-26 00:32:00,66.0,38.0,29.73,SW,222,13.0,30.0,35,0.00,,,0.00,,2013-04-26 05:32:00,
2013-04-26 00:42:00,66.0,38.0,29.73,SW,222,13.0,30.0,35,0.00,,,0.00,,2013-04-26 05:42:00,
2013-04-26 00:52:00,66.0,38.0,29.73,SW,222,13.0,30.0,35,0.00,,,0.00,,2013-04-26 05:52:00,
2013-04-26 01:02:00,66.0,38.0,29.72,SSW,193,12.0,26.0,35,0.00,,,0.00,,2013-04-26 06:02:00,
2013-04-26 01:11:00,66.0,38.0,29.72,SSW,193,12.0,26.0,35,0.00,,,0.00,,2013-04-26 06:11:00,
2013-04-26 01:21:00,66.0,38.0,29.72,SSW,193,12.0,26.0,35,0.00,,,0.00,,2013-04-26 06:21:00,
2013-04-26 01:32:00,67.0,36.0,29.71,SSW,206,9.0,25.0,32,0.00,,,0.00,,2013-04-26 06:32:00,
2013-04-26 01:42:00,67.0,36.0,29.71,SSW,206,9.0,25.0,32,0.00,,,0.00,,2013-04-26 06:42:00,
2013-04-26 01:52:00,67.0,36.0,29.71,SSW,206,9.0,25.0,32,0.00,,,0.00,,2013-04-26 06:52:00,
2013-04-26 02:01:00,68.0,37.0,29.70,SW,230,7.0,18.0,32,0.00,,,0.00,,2013-04-26 07:01:00,
2013-04-26 02:11:00,68.0,37.0,29.70,SW,230,7.0,18.0,32,0.00,,,0.00,,2013-04-26 07:11:00,
2013-04-26 02:22:00,68.0,37.0,29.70,SW,230,7.0,18.0,32,0.00,,,0.00,,2013-04-26 07:22:00,
2013-04-26 02:31:00,66.0,37.0,29.71,SSW,195,3.0,15.0,34,0.00,,,0.00,,2013-04-26 07:31:00,
2013-04-26 02:42:00,66.0,37.0,29.71,SSW,195,3.0,15.0,34,0.00,,,0.00,,2013-04-26 07:42:00,
2013-04-26 02:52:00,66.0,37.0,29.71,SSW,195,3.0,15.0,34,0.00,,,0.00,,2013-04-26 07:52:00,
2013-04-26 03:02:00,65.0,37.0,29.70,SW,220,3.0,12.0,36,0.00,,,0.00,,2013-04-26 08:02:00,
2013-04-26 03:11:00,65.0,37.0,29.70,SW,220,3.0,12.0,36,0.00,,,0.00,,2013-04-26 08:11:00,
2013-04-26 03:21:00,65.0,37.0,29.70,SW,220,3.0,12.0,36,0.00,,,0.00,,2013-04-26 08:21:00,
2013-04-26 03:32:00,65.0,36.0,29.70,West,281,3.0,12.0,34,0.00,,,0.00,,2013-04-26 08:32:00,
2013-04-26 03:42:00,65.0,36.0,29.70,West,281,3.0,12.0,34,0.00,,,0.00,,2013-04-26 08:42:00,
2013-04-26 03:52:00,65.0,36.0,29.70,West,281,3.0,12.0,34,0.00,,,0.00,,2013-04-26 08:52:00,
2013-04-26 04:01:00,61.0,35.0,29.71,WSW,247,0.0,6.0,38,0.00,,,0.00,,2013-04-26 09:01:00,
2013-04-26 04:11:00,61.0,35.0,29.71,WSW,247,0.0,6.0,38,0.00,,,0.00,,2013-04-26 09:11:00,
2013-04-26 04:21:00,61.0,35.0,29.71,WSW,247,0.0,6.0,38,0.00,,,0.00,,2013-04-26 09:21:00,
2013-04-26 04:33:00,53.0,34.0,29.77,WSW,247,0.0,3.0,48,0.00,,,0.00,,2013-04-26 09:33:00,
2013-04-26 04:43:00,53.0,34.0,29.77,WSW,247,0.0,3.0,48,0.00,,,0.00,,2013-04-26 09:43:00,
2013-04-26 04:53:00,53.0,34.0,29.77,WSW,247,0.0,3.0,48,0.00,,,0.00,,2013-04-26 09:53:00,
2013-04-26 05:03:00,48.0,33.0,29.80,WSW,247,0.0,2.0,56,0.00,,,0.00,,2013-04-26 10:03:00,
2013-04-26 05:12:00,48.0,33.0,29.80,WSW,247,0.0,2.0,56,0.00,,,0.00,,2013-04-26 10:12:00,
2013-04-26 05:23:00,48.0,33.0,29.80,WSW,247,0.0,2.0,56,0.00,,,0.00,,2013-04-26 10:23:00,
2013-04-26 05:33:00,45.0,32.0,29.83,WSW,247,0.0,2.0,60,0.00,,,0.00,,2013-04-26 10:33:00,
2013-04-26 05:42:00,45.0,32.0,29.83,WSW,247,0.0,2.0,60,0.00,,,0.00,,2013-04-26 10:42:00,
2013-04-26 05:52:00,45.0,32.0,29.83,WSW,247,0.0,2.0,60,0.00,,,0.00,,2013-04-26 10:52:00,
2013-04-26 06:02:00,43.0,31.0,29.85,WSW,246,0.0,3.0,63,0.00,,,0.00,,2013-04-26 11:02:00,
2013-04-26 06:11:00,43.0,31.0,29.85,WSW,246,0.0,3.0,63,0.00,,,0.00,,2013-04-26 11:11:00,
2013-04-26 06:22:00,43.0,31.0,29.85,WSW,246,0.0,3.0,63,0.00,,,0.00,,2013-04-26 11:22:00,
2013-04-26 06:32:00,41.0,30.0,29.87,WSW,246,0.0,3.0,64,0.00,,,0.00,,2013-04-26 11:32:00,
2013-04-26 06:42:00,41.0,30.0,29.87,WSW,246,0.0,3.0,64,0.00,,,0.00,,2013-04-26 11:42:00,
2013-04-26 06:52:00,41.0,30.0,29.87,WSW,246,0.0,3.0,64,0.00,,,0.00,,2013-04-26 11:52:00,
2013-04-26 07:01:00,41.0,31.0,29.88,WSW,247,0.0,2.0,66,0.00,,,0.00,,2013-04-26 12:01:00,
2013-04-26 07:11:00,41.0,31.0,29.88,WSW,247,0.0,2.0,66,0.00,,,0.00,,2013-04-26 12:11:00,
2013-04-26 07:21:00,41.0,31.0,29.88,WSW,247,0.0,2.0,66,0.00,,,0.00,,2013-04-26 12:21:00,
2013-04-26 07:32:00,41.0,31.0,29.89,WSW,247,0.0,2.0,68,0.00,,,0.00,,2013-04-26 12:32:00,
2013-04-26 07:42:00,41.0,31.0,29.89,WSW,247,0.0,2.0,68,0.00,,,0.00,,2013-04-26 12:42:00,
2013-04-26 07:52:00,41.0,31.0,29.89,WSW,247,0.0,2.0,68,0.00,,,0.00,,2013-04-26 12:52:00,
2013-04-26 08:01:00,57.0,27.0,29.83,SSW,200,4.0,13.0,32,0.00,,,0.00,,2013-04-26 13:01:00,
2013-04-26 08:11:00,57.0,27.0,29.83,SSW,200,4.0,13.0,32,0.00,,,0.00,,2013-04-26 13:11:00,
2013-04-26 08:21:00,57.0,27.0,29.83,SSW,200,4.0,13.0,32,0.00,,,0.00,,2013-04-26 13:21:00,
2013-04-26 08:32:00,60.0,21.0,29.83,SW,236,2.0,12.0,22,0.00,,,0.00,,2013-04-26 13:32:00,
2013-04-26 08:42:00,60.0,21.0,29.83,SW,236,2.0,12.0,22,0.00,,,0.00,,2013-04-26 13:42:00,
2013-04-26 08:52:00,60.0,21.0,29.83,SW,236,2.0,12.0,22,0.00,,,0.00,,2013-04-26 13:52:00,
2013-04-26 09:01:00,61.0,18.0,29.85,SSW,206,1.0,9.0,19,0.00,,,0.00,,2013-04-26 14:01:00,
2013-04-26 09:11:00,61.0,18.0,29.85,SSW,206,1.0,9.0,19,0.00,,,0.00,,2013-04-26 14:11:00,
2013-04-26 09:21:00,61.0,18.0,29.85,SSW,206,1.0,9.0,19,0.00,,,0.00,,2013-04-26 14:21:00,
2013-04-26 09:32:00,63.0,19.0,29.85,WNW,294,5.0,18.0,18,0.00,,,0.00,,2013-04-26 14:32:00,
2013-04-26 09:42:00,63.0,19.0,29.85,WNW,294,5.0,18.0,18,0.00,,,0.00,,2013-04-26 14:42:00,
2013-04-26 09:52:00,63.0,19.0,29.85,WNW,294,5.0,18.0,18,0.00,,,0.00,,2013-04-26 14:52:00,
2013-04-26 10:01:00,64.0,17.0,29.85,WSW,246,7.0,20.0,16,0.00,,,0.00,,2013-04-26 15:01:00,
2013-04-26 10:12:00,64.0,17.0,29.85,WSW,246,7.0,20.0,16,0.00,,,0.00,,2013-04-26 15:12:00,
2013-04-26 10:21:00,64.0,17.0,29.85,WSW,246,7.0,20.0,16,0.00,,,0.00,,2013-04-26 15:21:00,
2013-04-26 10:33:00,66.0,19.0,29.85,NNW,332,3.0,21.0,16,0.00,,,0.00,,2013-04-26 15:33:00,
2013-04-26 10:43:00,66.0,19.0,29.85,NNW,332,3.0,21.0,16,0.00,,,0.00,,2013-04-26 15:43:00,
2013-04-26 10:53:00,66.0,19.0,29.85,NNW,332,3.0,21.0,16,0.00,,,0.00,,2013-04-26 15:53:00,
2013-04-26 11:03:00,67.0,18.0,29.86,NNE,25,5.0,16.0,15,0.00,,,0.00,,2013-04-26 16:03:00,
2013-04-26 11:12:00,67.0,18.0,29.86,NNE,25,5.0,16.0,15,0.00,,,0.00,,2013-04-26 16:12:00,
2013-04-26 11:23:00,67.0,18.0,29.86,NNE,25,5.0,16.0,15,0.00,,,0.00,,2013-04-26 16:23:00,
2013-04-26 11:33:00,69.0,19.0,29.85,NNW,344,6.0,24.0,15,0.00,,,0.00,,2013-04-26 16:33:00,
2013-04-26 11:42:00,69.0,19.0,29.85,NNW,344,6.0,24.0,15,0.00,,,0.00,,2013-04-26 16:42:00,
2013-04-26 11:53:00,69.0,19.0,29.85,NNW,344,6.0,24.0,15,0.00,,,0.00,,2013-04-26 16:53:00,
2013-04-26 12:02:00,71.0,19.0,29.83,North,350,5.0,17.0,14,0.00,,,0.00,,2013-04-26 17:02:00,
2013-04-26 12:12:00,71.0,19.0,29.83,North,350,5.0,17.0,14,0.00,,,0.00,,2013-04-26 17:12:00,
2013-04-26 12:22:00,71.0,19.0,29.83,North,350,5.0,17.0,14,0.00,,,0.00,,2013-04-26 17:22:00,
2013-04-26 12:31:00,71.0,18.0,29.84,SW,221,6.0,20.0,13,0.00,,,0.00,,2013-04-26 17:31:00,
2013-04-26 12:42:00,71.0,18.0,29.84,SW,221,6.0,20.0,13,0.00,,,0.00,,2013-04-26 17:42:00,
2013-04-26 12:52:00,71.0,18.0,29.84,SW,221,6.0,20.0,13,0.00,,,0.00,,2013-04-26 17:52:00,
2013-04-26 13:02:00,72.0,18.0,29.83,WNW,287,7.0,17.0,13,0.00,,,0.00,,2013-04-26 18:02:00,
2013-04-26 13:12:00,72.0,18.0,29.83,WNW,287,7.0,17.0,13,0.00,,,0.00,,2013-04-26 18:12:00,
2013-04-26 13:22:00,72.0,18.0,29.83,WNW,287,7.0,17.0,13,0.00,,,0.00,,2013-04-26 18:22:00,
2013-04-26 13:33:00,73.0,15.0,29.83,SW,222,9.0,20.0,11,0.00,,,0.00,,2013-04-26 18:33:00,
2013-04-26 13:42:00,73.0,15.0,29.83,SW,222,9.0,20.0,11,0.00,,,0.00,,2013-04-26 18:42:00,
2013-04-26 13:52:00,73.0,15.0,29.83,SW,222,9.0,20.0,11,0.00,,,0.00,,2013-04-26 18:52:00,
2013-04-26 14:01:00,73.0,15.0,29.83,NW,308,5.0,17.0,11,0.00,,,0.00,,2013-04-26 19:01:00,
2013-04-26 14:12:00,73.0,15.0,29.83,NW,308,5.0,17.0,11,0.00,,,0.00,,2013-04-26 19:12:00,
2013-04-26 14:22:00,73.0,15.0,29.83,NW,308,5.0,17.0,11,0.00,,,0.00,,2013-04-26 19:22:00,
2013-04-26 14:32:00,74.0,12.0,29.82,SW,222,9.0,20.0,9,0.00,,,0.00,,2013-04-26 19:32:00,
2013-04-26 14:42:00,74.0,12.0,29.82,SW,222,9.0,20.0,9,0.00,,,0.00,,2013-04-26 19:42:00,
2013-04-26 14:52:00,74.0,12.0,29.82,SW,222,9.0,20.0,9,0.00,,,0.00,,2013-04-26 19:52:00,
2013-04-26 15:02:00,74.0,14.0,29.82,NW,326,6.0,25.0,10,0.00,,,0.00,,2013-04-26 20:02:00,
2013-04-26 15:11:00,74.0,14.0,29.82,NW,326,6.0,25.0,10,0.00,,,0.00,,2013-04-26 20:11:00,
2013-04-26 15:21:00,74.0,14.0,29.82,NW,326,6.0,25.0,10,0.00,,,0.00,,2013-04-26 20:21:00,
2013-04-26 15:32:00,74.0,12.0,29.81,NNW,335,6.0,26.0,9,0.00,,,0.00,,2013-04-26 20:32:00,
2013-04-26 15:42:00,74.0,12.0,29.81,NNW,335,6.0,26.0,9,0.00,,,0.00,,2013-04-26 20:42:00,
2013-04-26 15:52:00,74.0,12.0,29.81,NNW,335,6.0,26.0,9,0.00,,,0.00,,2013-04-26 20:52:00,
2013-04-26 16:01:00,75.0,12.0,29.88,SSW,209,10.0,17.0,9,0.00,,,0.00,,2013-04-26 21:01:00,
2013-04-26 16:11:00,75.0,12.0,29.88,SSW,209,10.0,17.0,9,0.00,,,0.00,,2013-04-26 21:11:00,
2013-04-26 16:22:00,75.0,12.0,29.88,SSW,209,10.0,17.0,9,0.00,,,0.00,,2013-04-26 21:22:00,
2013-04-26 16:33:00,76.0,16.0,29.87,WSW,254,9.0,18.0,10,0.00,,,0.00,,2013-04-26 21:33:00,
2013-04-26 16:42:00,76.0,16.0,29.87,WSW,254,9.0,18.0,10,0.00,,,0.00,,2013-04-26 21:42:00,
2013-04-26 16:53:00,76.0,16.0,29.87,WSW,254,9.0,18.0,10,0.00,,,0.00,,2013-04-26 21:53:00,
2013-04-26 17:02:00,75.0,12.0,29.90,WNW,288,9.0,16.0,9,0.00,,,0.00,,2013-04-26 22:02:00,
2013-04-26 17:12:00,75.0,12.0,29.90,WNW,288,9.0,16.0,9,0.00,,,0.00,,2013-04-26 22:12:00,
2013-04-26 17:23:00,75.0,12.0,29.90,WNW,288,9.0,16.0,9,0.00,,,0.00,,2013-04-26 22:23:00,
2013-04-26 17:33:00,75.0,12.0,29.89,West,271,11.0,18.0,9,0.00,,,0.00,,2013-04-26 22:33:00,
2013-04-26 17:42:00,75.0,12.0,29.89,West,271,11.0,18.0,9,0.00,,,0.00,,2013-04-26 22:42:00,
2013-04-26 17:52:00,75.0,12.0,29.89,West,271,11.0,18.0,9,0.00,,,0.00,,2013-04-26 22:52:00,
2013-04-26 18:02:00,76.0,13.0,29.91,SW,236,9.0,17.0,9,0.00,,,0.00,,2013-04-26 23:02:00,
2013-04-26 18:11:00,76.0,13.0,29.91,SW,236,9.0,17.0,9,0.00,,,0.00,,2013-04-26 23:11:00,
2013-04-26 18:21:00,76.0,13.0,29.91,SW,236,9.0,17.0,9,0.00,,,0.00,,2013-04-26 23:21:00,
2013-04-26 18:32:00,75.0,10.0,29.91,WSW,241,9.0,17.0,8,0.00,,,0.00,,2013-04-26 23:32:00,
2013-04-26 18:42:00,75.0,10.0,29.91,WSW,241,9.0,17.0,8,0.00,,,0.00,,2013-04-26 23:42:00,
2013-04-26 18:52:00,75.0,10.0,29.91,WSW,241,9.0,17.0,8,0.00,,,0.00,,2013-04-26 23:52:00,
2013-04-26 19:01:00,76.0,7.0,29.85,SW,233,4.0,12.0,7,0.00,,,0.00,,2013-04-27 00:01:00,
2013-04-26 19:11:00,76.0,7.0,29.85,SW,233,4.0,12.0,7,0.00,,,0.00,,2013-04-27 00:11:00,
2013-04-26 19:21:00,76.0,7.0,29.85,SW,233,4.0,12.0,7,0.00,,,0.00,,2013-04-27 00:21:00,
2013-04-26 19:32:00,75.0,10.0,29.86,WNW,294,2.0,17.0,8,0.00,,,0.00,,2013-04-27 00:32:00,
2013-04-26 19:42:00,75.0,10.0,29.86,WNW,294,2.0,17.0,8,0.00,,,0.00,,2013-04-27 00:42:00,
2013-04-26 19:52:00,75.0,10.0,29.86,WNW,294,2.0,17.0,8,0.00,,,0.00,,2013-04-27 00:52:00,
2013-04-26 20:01:00,75.0,10.0,29.86,WNW,294,2.0,17.0,8,0.00,,,0.00,,2013-04-27 01:01:00,